Minto Bridge, Yukon Territory

9:43 AM PDT on October 17, 2017 (GMT -0700)
Mayo | | Change Station

Elev 1654 ft 63.62 °N, 135.87 °W | Updated 43 minutes ago

Snow
Snow
19 °F
Feels Like 19 °F
N
2
Wind Variable Wind from Variable

Today
High -- | Low -- °F
--% Chance of Precip.
Yesterday
High -- | Low -- °F
Precip. -- in
Pressure 29.60 in
Visibility 3.0 miles
Clouds Scattered Clouds 2000 ft
Mostly Cloudy 3000 ft
Overcast 4500 ft
Dew Point 18 °F
Humidity 93%
Rainfall 0.00 in
Snow Depth Not available.
8:59 AM 6:36 PM
Waning Crescent, 5% visible
METAR CYMA 171600Z VRB02KT 3SM -SN SCT020 BKN030 OVC045 M07/M08 A2948 RMK SC3SC2SC3 SLP021
Pressure 29.60 in
Visibility 3.0 miles
Clouds Scattered Clouds 2000 ft
Mostly Cloudy 3000 ft
Overcast 4500 ft
Dew Point 18 °F
Humidity 93%
Rainfall 0.00 in
Snow Depth Not available.
8:59 AM 6:36 PM
Waning Crescent, 5% visible
METAR CYMA 171600Z VRB02KT 3SM -SN SCT020 BKN030 OVC045 M07/M08 A2948 RMK SC3SC2SC3 SLP021

Get Severe Weather Alerts

Thanks for signing up!

Be on the lookout for a verification email in your inbox.

You'll start receiving the daily forecast at 6 AM.

×

10-Day Weather Forecast

Almanac

Astronomy

Oct. 17, 2017 Rise Set
Actual Time
Civil Twilight
Nautical Twilight
Astronomical Twilight
Moon
Length of Visible Light
Length of Day
Tomorrow will be .
, % of the Moon is Illuminated

Today's Extremes

Country Highs Country Lows

Community

WunderPhotos

Category 6

Welcome to Category 6. This is the collective home for Weather Underground's featured writeups by Dr. Jeff Masters (right), Bob Henson (left), Chris Burt, and other regular contributors.

Nearby

Air Quality

  Air Quality AQ Index Pollutant
Not available.

Snow Depth

Station Depth Elevation

Earthquake Activity

City Distance Mag. Time & Date
Minimum magnitude displayed is 2.5.

Coastal Water Temperatures

Place Temperature

Stations

Nearby Weather Stations

Station Location Temp. Windchill Dew Point Humidity Wind Precip. Elev Updated Type
                   

Watches & Warnings

There are currently no watches in effect.